sensor_id;sensor_type;location;lat;lon;timestamp;pressure;altitude;pressure_sealevel;temperature
68911;BMP180;55953;51.650;-0.522;2023-03-02T00:01:58;101709.40;;;4.50
68911;BMP180;55953;51.650;-0.522;2023-03-02T00:04:54;101706.60;;;4.42
68911;BMP180;55953;51.650;-0.522;2023-03-02T00:07:29;101703.80;;;4.30
68911;BMP180;55953;51.650;-0.522;2023-03-02T00:09:59;101705.80;;;4.26
68911;BMP180;55953;51.650;-0.522;2023-03-02T00:12:29;101708.20;;;4.20
68911;BMP180;55953;51.650;-0.522;2023-03-02T00:14:58;101708.20;;;4.14
68911;BMP180;55953;51.650;-0.522;2023-03-02T00:17:26;101712.80;;;4.00
68911;BMP180;55953;51.650;-0.522;2023-03-02T00:19:56;101711.80;;;4.00
68911;BMP180;55953;51.650;-0.522;2023-03-02T00:22:35;101712.20;;;3.90
68911;BMP180;55953;51.650;-0.522;2023-03-02T00:25:04;101709.80;;;3.86
68911;BMP180;55953;51.650;-0.522;2023-03-02T00:27:32;101714.80;;;3.80
68911;BMP180;55953;51.650;-0.522;2023-03-02T00:30:00;101714.60;;;3.80
68911;BMP180;55953;51.650;-0.522;2023-03-02T00:32:28;101718.40;;;3.70
68911;BMP180;55953;51.650;-0.522;2023-03-02T00:34:56;101717.40;;;3.70
68911;BMP180;55953;51.650;-0.522;2023-03-02T00:37:25;101707.80;;;3.70
68911;BMP180;55953;51.650;-0.522;2023-03-02T00:39:53;101713.20;;;3.66
68911;BMP180;55953;51.650;-0.522;2023-03-02T00:42:22;101713.60;;;3.60
68911;BMP180;55953;51.650;-0.522;2023-03-02T00:44:51;101715.60;;;3.60
68911;BMP180;55953;51.650;-0.522;2023-03-02T00:47:19;101716.40;;;3.52
68911;BMP180;55953;51.650;-0.522;2023-03-02T00:49:47;101710.60;;;3.50
68911;BMP180;55953;51.650;-0.522;2023-03-02T00:52:16;101707.20;;;3.50
68911;BMP180;55953;51.650;-0.522;2023-03-02T00:54:44;101700.80;;;3.50
68911;BMP180;55953;51.650;-0.522;2023-03-02T00:57:12;101704.20;;;3.50
68911;BMP180;55953;51.650;-0.522;2023-03-02T00:59:40;101709.40;;;3.58
68911;BMP180;55953;51.650;-0.522;2023-03-02T01:02:22;101705.00;;;3.50
68911;BMP180;55953;51.650;-0.522;2023-03-02T01:04:51;101710.80;;;3.50
68911;BMP180;55953;51.650;-0.522;2023-03-02T01:07:21;101714.00;;;3.50
68911;BMP180;55953;51.650;-0.522;2023-03-02T01:09:49;101713.40;;;3.40
68911;BMP180;55953;51.650;-0.522;2023-03-02T01:12:17;101714.40;;;3.40
68911;BMP180;55953;51.650;-0.522;2023-03-02T01:14:47;101708.20;;;3.30
68911;BMP180;55953;51.650;-0.522;2023-03-02T01:17:18;101708.00;;;3.30
68911;BMP180;55953;51.650;-0.522;2023-03-02T01:19:48;101707.40;;;3.20
68911;BMP180;55953;51.650;-0.522;2023-03-02T01:22:17;101707.80;;;3.18
68911;BMP180;55953;51.650;-0.522;2023-03-02T01:24:45;101703.20;;;3.12
68911;BMP180;55953;51.650;-0.522;2023-03-02T01:27:14;101700.80;;;3.10
68911;BMP180;55953;51.650;-0.522;2023-03-02T01:29:42;101699.80;;;3.00
68911;BMP180;55953;51.650;-0.522;2023-03-02T01:32:10;101699.60;;;3.00
68911;BMP180;55953;51.650;-0.522;2023-03-02T01:34:38;101692.00;;;3.00
68911;BMP180;55953;51.650;-0.522;2023-03-02T01:37:07;101691.80;;;3.00
68911;BMP180;55953;51.650;-0.522;2023-03-02T01:39:35;101685.60;;;2.94
68911;BMP180;55953;51.650;-0.522;2023-03-02T01:42:03;101683.20;;;2.90
68911;BMP180;55953;51.650;-0.522;2023-03-02T01:44:46;101683.00;;;2.90
68911;BMP180;55953;51.650;-0.522;2023-03-02T01:47:23;101684.60;;;2.90
68911;BMP180;55953;51.650;-0.522;2023-03-02T01:50:22;101683.40;;;3.00
68911;BMP180;55953;51.650;-0.522;2023-03-02T01:52:54;101680.80;;;3.00
68911;BMP180;55953;51.650;-0.522;2023-03-02T01:55:28;101674.80;;;3.00
68911;BMP180;55953;51.650;-0.522;2023-03-02T01:58:00;101675.80;;;3.10
68911;BMP180;55953;51.650;-0.522;2023-03-02T02:00:36;101674.80;;;3.10
68911;BMP180;55953;51.650;-0.522;2023-03-02T02:03:18;101675.40;;;3.20
68911;BMP180;55953;51.650;-0.522;2023-03-02T02:06:08;101673.80;;;3.20
68911;BMP180;55953;51.650;-0.522;2023-03-02T02:08:38;101674.20;;;3.28
68911;BMP180;55953;51.650;-0.522;2023-03-02T02:11:06;101669.80;;;3.30
68911;BMP180;55953;51.650;-0.522;2023-03-02T02:13:34;101669.20;;;3.30
68911;BMP180;55953;51.650;-0.522;2023-03-02T02:16:04;101673.40;;;3.30
68911;BMP180;55953;51.650;-0.522;2023-03-02T02:18:35;101671.00;;;3.30
68911;BMP180;55953;51.650;-0.522;2023-03-02T02:21:06;101665.20;;;3.30
68911;BMP180;55953;51.650;-0.522;2023-03-02T02:26:42;101663.00;;;3.30
68911;BMP180;55953;51.650;-0.522;2023-03-02T02:29:17;101662.00;;;3.30
68911;BMP180;55953;51.650;-0.522;2023-03-02T02:34:47;101656.60;;;3.30
68911;BMP180;55953;51.650;-0.522;2023-03-02T02:37:28;101654.60;;;3.20
68911;BMP180;55953;51.650;-0.522;2023-03-02T02:40:02;101659.20;;;3.18
68911;BMP180;55953;51.650;-0.522;2023-03-02T02:42:42;101665.40;;;3.20
68911;BMP180;55953;51.650;-0.522;2023-03-02T02:45:29;101659.40;;;3.20
68911;BMP180;55953;51.650;-0.522;2023-03-02T02:47:57;101655.80;;;3.20
68911;BMP180;55953;51.650;-0.522;2023-03-02T02:50:32;101654.40;;;3.20
68911;BMP180;55953;51.650;-0.522;2023-03-02T02:53:22;101652.00;;;3.28
68911;BMP180;55953;51.650;-0.522;2023-03-02T02:55:56;101652.40;;;3.30
68911;BMP180;55953;51.650;-0.522;2023-03-02T02:58:33;101656.80;;;3.30
68911;BMP180;55953;51.650;-0.522;2023-03-02T03:01:03;101655.00;;;3.30
68911;BMP180;55953;51.650;-0.522;2023-03-02T03:03:38;101663.40;;;3.38
68911;BMP180;55953;51.650;-0.522;2023-03-02T03:06:17;101663.80;;;3.40
68911;BMP180;55953;51.650;-0.522;2023-03-02T03:11:24;101660.60;;;3.50
68911;BMP180;55953;51.650;-0.522;2023-03-02T03:16:33;101654.40;;;3.56
68911;BMP180;55953;51.650;-0.522;2023-03-02T03:19:22;101651.20;;;3.60
68911;BMP180;55953;51.650;-0.522;2023-03-02T03:21:55;101644.80;;;3.60
68911;BMP180;55953;51.650;-0.522;2023-03-02T03:24:27;101643.00;;;3.60
68911;BMP180;55953;51.650;-0.522;2023-03-02T03:26:56;101643.60;;;3.70
68911;BMP180;55953;51.650;-0.522;2023-03-02T03:29:27;101642.20;;;3.70
68911;BMP180;55953;51.650;-0.522;2023-03-02T03:32:00;101637.80;;;3.70
68911;BMP180;55953;51.650;-0.522;2023-03-02T03:34:30;101635.00;;;3.70
68911;BMP180;55953;51.650;-0.522;2023-03-02T03:36:58;101640.40;;;3.70
68911;BMP180;55953;51.650;-0.522;2023-03-02T03:39:33;101634.60;;;3.70
68911;BMP180;55953;51.650;-0.522;2023-03-02T03:42:01;101641.80;;;3.70
68911;BMP180;55953;51.650;-0.522;2023-03-02T03:44:29;101641.00;;;3.80
68911;BMP180;55953;51.650;-0.522;2023-03-02T03:46:57;101638.20;;;3.80
68911;BMP180;55953;51.650;-0.522;2023-03-02T03:49:26;101638.20;;;3.80
68911;BMP180;55953;51.650;-0.522;2023-03-02T03:51:54;101644.00;;;3.80
68911;BMP180;55953;51.650;-0.522;2023-03-02T03:54:22;101639.80;;;3.90
68911;BMP180;55953;51.650;-0.522;2023-03-02T03:56:50;101637.80;;;3.90
68911;BMP180;55953;51.650;-0.522;2023-03-02T03:59:22;101637.80;;;3.90
68911;BMP180;55953;51.650;-0.522;2023-03-02T04:01:58;101639.00;;;3.90
68911;BMP180;55953;51.650;-0.522;2023-03-02T04:04:34;101639.20;;;3.96
68911;BMP180;55953;51.650;-0.522;2023-03-02T04:07:07;101639.80;;;3.98
68911;BMP180;55953;51.650;-0.522;2023-03-02T04:09:36;101645.20;;;4.00
68911;BMP180;55953;51.650;-0.522;2023-03-02T04:12:07;101647.80;;;4.00
68911;BMP180;55953;51.650;-0.522;2023-03-02T04:14:36;101649.60;;;4.10
68911;BMP180;55953;51.650;-0.522;2023-03-02T04:17:05;101652.20;;;4.10
68911;BMP180;55953;51.650;-0.522;2023-03-02T04:19:36;101652.00;;;4.10
68911;BMP180;55953;51.650;-0.522;2023-03-02T04:22:04;101656.40;;;4.10
68911;BMP180;55953;51.650;-0.522;2023-03-02T04:24:33;101654.80;;;4.10
68911;BMP180;55953;51.650;-0.522;2023-03-02T04:27:03;101653.20;;;4.10
68911;BMP180;55953;51.650;-0.522;2023-03-02T04:29:32;101658.40;;;4.10
68911;BMP180;55953;51.650;-0.522;2023-03-02T04:32:02;101657.00;;;4.10
68911;BMP180;55953;51.650;-0.522;2023-03-02T04:34:33;101664.00;;;4.10
68911;BMP180;55953;51.650;-0.522;2023-03-02T04:37:01;101666.20;;;4.10
68911;BMP180;55953;51.650;-0.522;2023-03-02T04:39:29;101665.20;;;4.10
68911;BMP180;55953;51.650;-0.522;2023-03-02T04:41:57;101664.00;;;4.14
68911;BMP180;55953;51.650;-0.522;2023-03-02T04:44:25;101666.60;;;4.18
68911;BMP180;55953;51.650;-0.522;2023-03-02T04:46:53;101665.80;;;4.20
68911;BMP180;55953;51.650;-0.522;2023-03-02T04:49:22;101663.00;;;4.20
68911;BMP180;55953;51.650;-0.522;2023-03-02T04:51:50;101664.80;;;4.20
68911;BMP180;55953;51.650;-0.522;2023-03-02T04:54:25;101661.80;;;4.20
68911;BMP180;55953;51.650;-0.522;2023-03-02T04:56:54;101660.60;;;4.20
68911;BMP180;55953;51.650;-0.522;2023-03-02T04:59:26;101658.20;;;4.20
68911;BMP180;55953;51.650;-0.522;2023-03-02T05:01:58;101656.80;;;4.20
68911;BMP180;55953;51.650;-0.522;2023-03-02T05:04:27;101660.40;;;4.22
68911;BMP180;55953;51.650;-0.522;2023-03-02T05:06:56;101659.60;;;4.22
68911;BMP180;55953;51.650;-0.522;2023-03-02T05:09:25;101658.20;;;4.28
68911;BMP180;55953;51.650;-0.522;2023-03-02T05:11:58;101654.20;;;4.28
68911;BMP180;55953;51.650;-0.522;2023-03-02T05:14:27;101656.60;;;4.20
68911;BMP180;55953;51.650;-0.522;2023-03-02T05:16:56;101654.40;;;4.20
68911;BMP180;55953;51.650;-0.522;2023-03-02T05:19:24;101654.00;;;4.20
68911;BMP180;55953;51.650;-0.522;2023-03-02T05:21:52;101658.00;;;4.10
68911;BMP180;55953;51.650;-0.522;2023-03-02T05:24:20;101657.00;;;4.02
68911;BMP180;55953;51.650;-0.522;2023-03-02T05:26:48;101655.00;;;4.00
68911;BMP180;55953;51.650;-0.522;2023-03-02T05:29:16;101657.00;;;3.90
68911;BMP180;55953;51.650;-0.522;2023-03-02T05:31:48;101658.00;;;3.90
68911;BMP180;55953;51.650;-0.522;2023-03-02T05:34:16;101655.80;;;3.82
68911;BMP180;55953;51.650;-0.522;2023-03-02T05:36:45;101658.60;;;3.70
68911;BMP180;55953;51.650;-0.522;2023-03-02T05:39:13;101659.40;;;3.70
68911;BMP180;55953;51.650;-0.522;2023-03-02T05:41:41;101659.80;;;3.60
68911;BMP180;55953;51.650;-0.522;2023-03-02T05:44:09;101656.60;;;3.50
68911;BMP180;55953;51.650;-0.522;2023-03-02T05:46:39;101655.60;;;3.50
68911;BMP180;55953;51.650;-0.522;2023-03-02T05:49:07;101655.20;;;3.40
68911;BMP180;55953;51.650;-0.522;2023-03-02T05:51:35;101656.80;;;3.40
68911;BMP180;55953;51.650;-0.522;2023-03-02T05:54:03;101658.80;;;3.40
68911;BMP180;55953;51.650;-0.522;2023-03-02T05:56:30;101657.80;;;3.40
68911;BMP180;55953;51.650;-0.522;2023-03-02T05:58:59;101661.20;;;3.40
68911;BMP180;55953;51.650;-0.522;2023-03-02T06:01:27;101658.40;;;3.40
68911;BMP180;55953;51.650;-0.522;2023-03-02T06:03:55;101658.00;;;3.30
68911;BMP180;55953;51.650;-0.522;2023-03-02T06:06:23;101658.80;;;3.30
68911;BMP180;55953;51.650;-0.522;2023-03-02T06:08:51;101653.20;;;3.30
68911;BMP180;55953;51.650;-0.522;2023-03-02T06:11:18;101657.20;;;3.24
68911;BMP180;55953;51.650;-0.522;2023-03-02T06:13:46;101651.20;;;3.20
68911;BMP180;55953;51.650;-0.522;2023-03-02T06:16:15;101656.00;;;3.20
68911;BMP180;55953;51.650;-0.522;2023-03-02T06:18:43;101661.00;;;3.18
68911;BMP180;55953;51.650;-0.522;2023-03-02T06:21:10;101659.20;;;3.10
68911;BMP180;55953;51.650;-0.522;2023-03-02T06:23:38;101661.80;;;3.08
68911;BMP180;55953;51.650;-0.522;2023-03-02T06:26:11;101662.60;;;3.00
68911;BMP180;55953;51.650;-0.522;2023-03-02T06:28:39;101659.20;;;2.92
68911;BMP180;55953;51.650;-0.522;2023-03-02T06:31:22;101661.20;;;2.90
68911;BMP180;55953;51.650;-0.522;2023-03-02T06:33:50;101658.00;;;2.80
68911;BMP180;55953;51.650;-0.522;2023-03-02T06:36:18;101663.80;;;2.80
68911;BMP180;55953;51.650;-0.522;2023-03-02T06:38:46;101665.60;;;2.76
68911;BMP180;55953;51.650;-0.522;2023-03-02T06:41:15;101672.20;;;2.70
68911;BMP180;55953;51.650;-0.522;2023-03-02T06:43:43;101675.00;;;2.70
68911;BMP180;55953;51.650;-0.522;2023-03-02T06:46:12;101672.00;;;2.70
68911;BMP180;55953;51.650;-0.522;2023-03-02T06:48:40;101677.80;;;2.60
68911;BMP180;55953;51.650;-0.522;2023-03-02T06:51:08;101673.40;;;2.62
68911;BMP180;55953;51.650;-0.522;2023-03-02T06:53:36;101683.80;;;2.60
68911;BMP180;55953;51.650;-0.522;2023-03-02T06:56:05;101686.00;;;2.60
68911;BMP180;55953;51.650;-0.522;2023-03-02T06:58:33;101688.60;;;2.60
68911;BMP180;55953;51.650;-0.522;2023-03-02T07:01:02;101689.80;;;2.60
68911;BMP180;55953;51.650;-0.522;2023-03-02T07:03:30;101685.80;;;2.60
68911;BMP180;55953;51.650;-0.522;2023-03-02T07:05:58;101689.20;;;2.60
68911;BMP180;55953;51.650;-0.522;2023-03-02T07:08:26;101689.00;;;2.68
68911;BMP180;55953;51.650;-0.522;2023-03-02T07:10:54;101687.00;;;2.70
68911;BMP180;55953;51.650;-0.522;2023-03-02T07:13:23;101684.60;;;2.70
68911;BMP180;55953;51.650;-0.522;2023-03-02T07:15:51;101688.60;;;2.80
68911;BMP180;55953;51.650;-0.522;2023-03-02T07:18:18;101688.00;;;2.86
68911;BMP180;55953;51.650;-0.522;2023-03-02T07:20:46;101691.00;;;2.90
68911;BMP180;55953;51.650;-0.522;2023-03-02T07:23:14;101685.40;;;3.00
68911;BMP180;55953;51.650;-0.522;2023-03-02T07:25:42;101680.00;;;3.04
68911;BMP180;55953;51.650;-0.522;2023-03-02T07:28:10;101684.20;;;3.10
68911;BMP180;55953;51.650;-0.522;2023-03-02T07:30:38;101682.20;;;3.20
68911;BMP180;55953;51.650;-0.522;2023-03-02T07:33:06;101676.00;;;3.20
68911;BMP180;55953;51.650;-0.522;2023-03-02T07:35:34;101678.80;;;3.30
68911;BMP180;55953;51.650;-0.522;2023-03-02T07:38:02;101679.80;;;3.30
68911;BMP180;55953;51.650;-0.522;2023-03-02T07:40:30;101673.40;;;3.40
68911;BMP180;55953;51.650;-0.522;2023-03-02T07:42:58;101673.40;;;3.40
68911;BMP180;55953;51.650;-0.522;2023-03-02T07:45:26;101672.00;;;3.40
68911;BMP180;55953;51.650;-0.522;2023-03-02T07:47:54;101676.80;;;3.40
68911;BMP180;55953;51.650;-0.522;2023-03-02T07:50:22;101674.00;;;3.42
68911;BMP180;55953;51.650;-0.522;2023-03-02T07:52:50;101665.00;;;3.50
68911;BMP180;55953;51.650;-0.522;2023-03-02T07:55:18;101667.60;;;3.50
68911;BMP180;55953;51.650;-0.522;2023-03-02T07:57:46;101668.60;;;3.60
68911;BMP180;55953;51.650;-0.522;2023-03-02T08:00:16;101669.00;;;3.60
68911;BMP180;55953;51.650;-0.522;2023-03-02T08:02:44;101665.80;;;3.60
68911;BMP180;55953;51.650;-0.522;2023-03-02T08:05:12;101669.80;;;3.70
68911;BMP180;55953;51.650;-0.522;2023-03-02T08:07:40;101663.00;;;3.70
68911;BMP180;55953;51.650;-0.522;2023-03-02T08:10:10;101667.20;;;3.80
68911;BMP180;55953;51.650;-0.522;2023-03-02T08:12:38;101666.40;;;3.90
68911;BMP180;55953;51.650;-0.522;2023-03-02T08:15:07;101672.60;;;3.90
68911;BMP180;55953;51.650;-0.522;2023-03-02T08:17:35;101665.20;;;3.92
68911;BMP180;55953;51.650;-0.522;2023-03-02T08:20:04;101670.40;;;4.00
68911;BMP180;55953;51.650;-0.522;2023-03-02T08:22:33;101672.40;;;4.00
68911;BMP180;55953;51.650;-0.522;2023-03-02T08:25:01;101670.00;;;4.10
68911;BMP180;55953;51.650;-0.522;2023-03-02T08:27:29;101671.40;;;4.14
68911;BMP180;55953;51.650;-0.522;2023-03-02T08:29:57;101669.00;;;4.20
68911;BMP180;55953;51.650;-0.522;2023-03-02T08:32:25;101668.60;;;4.30
68911;BMP180;55953;51.650;-0.522;2023-03-02T08:34:53;101663.20;;;4.30
68911;BMP180;55953;51.650;-0.522;2023-03-02T08:37:21;101666.40;;;4.40
68911;BMP180;55953;51.650;-0.522;2023-03-02T08:39:49;101668.00;;;4.50
68911;BMP180;55953;51.650;-0.522;2023-03-02T08:42:18;101673.20;;;4.50
68911;BMP180;55953;51.650;-0.522;2023-03-02T08:44:46;101667.40;;;4.60
68911;BMP180;55953;51.650;-0.522;2023-03-02T08:47:14;101667.40;;;4.62
68911;BMP180;55953;51.650;-0.522;2023-03-02T08:49:41;101673.20;;;4.72
68911;BMP180;55953;51.650;-0.522;2023-03-02T08:52:09;101675.20;;;4.90
68911;BMP180;55953;51.650;-0.522;2023-03-02T08:54:37;101676.60;;;4.98
68911;BMP180;55953;51.650;-0.522;2023-03-02T08:57:10;101683.60;;;5.10
68911;BMP180;55953;51.650;-0.522;2023-03-02T08:59:38;101683.20;;;5.24
68911;BMP180;55953;51.650;-0.522;2023-03-02T09:02:10;101685.80;;;5.40
68911;BMP180;55953;51.650;-0.522;2023-03-02T09:04:38;101687.80;;;5.40
68911;BMP180;55953;51.650;-0.522;2023-03-02T09:07:08;101694.20;;;5.50
68911;BMP180;55953;51.650;-0.522;2023-03-02T09:09:36;101694.40;;;5.60
68911;BMP180;55953;51.650;-0.522;2023-03-02T09:12:05;101692.40;;;5.70
68911;BMP180;55953;51.650;-0.522;2023-03-02T09:14:33;101701.20;;;5.80
68911;BMP180;55953;51.650;-0.522;2023-03-02T09:17:00;101699.40;;;6.00
68911;BMP180;55953;51.650;-0.522;2023-03-02T09:19:28;101694.00;;;6.20
68911;BMP180;55953;51.650;-0.522;2023-03-02T09:21:56;101702.40;;;6.30
68911;BMP180;55953;51.650;-0.522;2023-03-02T09:24:24;101698.20;;;6.40
68911;BMP180;55953;51.650;-0.522;2023-03-02T09:26:52;101700.40;;;6.60
68911;BMP180;55953;51.650;-0.522;2023-03-02T09:29:20;101698.80;;;6.70
68911;BMP180;55953;51.650;-0.522;2023-03-02T09:31:48;101701.80;;;6.80
68911;BMP180;55953;51.650;-0.522;2023-03-02T09:34:16;101704.00;;;6.80
68911;BMP180;55953;51.650;-0.522;2023-03-02T09:36:44;101703.60;;;6.90
68911;BMP180;55953;51.650;-0.522;2023-03-02T09:39:12;101706.40;;;6.92
68911;BMP180;55953;51.650;-0.522;2023-03-02T09:48:26;101699.40;;;6.96
68911;BMP180;55953;51.650;-0.522;2023-03-02T09:51:29;101696.80;;;7.00
68911;BMP180;55953;51.650;-0.522;2023-03-02T09:54:09;101700.20;;;7.30
68911;BMP180;55953;51.650;-0.522;2023-03-02T09:56:52;101701.80;;;7.40
68911;BMP180;55953;51.650;-0.522;2023-03-02T09:59:41;101692.80;;;7.50
68911;BMP180;55953;51.650;-0.522;2023-03-02T10:05:11;101690.40;;;7.60
68911;BMP180;55953;51.650;-0.522;2023-03-02T10:07:41;101687.00;;;7.70
68911;BMP180;55953;51.650;-0.522;2023-03-02T10:10:25;101690.80;;;7.70
68911;BMP180;55953;51.650;-0.522;2023-03-02T10:13:24;101693.00;;;7.70
68911;BMP180;55953;51.650;-0.522;2023-03-02T10:18:50;101693.00;;;7.90
68911;BMP180;55953;51.650;-0.522;2023-03-02T10:21:44;101692.40;;;7.90
68911;BMP180;55953;51.650;-0.522;2023-03-02T10:24:43;101698.40;;;7.70
68911;BMP180;55953;51.650;-0.522;2023-03-02T10:27:27;101698.20;;;7.64
68911;BMP180;55953;51.650;-0.522;2023-03-02T10:30:04;101694.20;;;7.52
68911;BMP180;55953;51.650;-0.522;2023-03-02T10:32:43;101695.80;;;7.48
68911;BMP180;55953;51.650;-0.522;2023-03-02T10:35:20;101695.00;;;7.46
68911;BMP180;55953;51.650;-0.522;2023-03-02T10:38:01;101693.20;;;7.64
68911;BMP180;55953;51.650;-0.522;2023-03-02T10:40:45;101684.60;;;7.50
68911;BMP180;55953;51.650;-0.522;2023-03-02T10:44:05;101690.00;;;7.44
68911;BMP180;55953;51.650;-0.522;2023-03-02T10:46:41;101685.20;;;7.60
68911;BMP180;55953;51.650;-0.522;2023-03-02T10:49:41;101687.00;;;7.60
68911;BMP180;55953;51.650;-0.522;2023-03-02T10:52:15;101689.00;;;7.70
68911;BMP180;55953;51.650;-0.522;2023-03-02T10:54:43;101688.00;;;7.70
68911;BMP180;55953;51.650;-0.522;2023-03-02T10:57:34;101685.60;;;7.60
68911;BMP180;55953;51.650;-0.522;2023-03-02T11:00:21;101687.20;;;7.24
68911;BMP180;55953;51.650;-0.522;2023-03-02T11:03:18;101689.80;;;7.04
68911;BMP180;55953;51.650;-0.522;2023-03-02T11:05:45;101685.40;;;7.20
68911;BMP180;55953;51.650;-0.522;2023-03-02T11:08:24;101684.00;;;7.10
68911;BMP180;55953;51.650;-0.522;2023-03-02T11:13:37;101690.20;;;7.20
68911;BMP180;55953;51.650;-0.522;2023-03-02T11:19:01;101689.00;;;7.30
68911;BMP180;55953;51.650;-0.522;2023-03-02T11:21:38;101690.20;;;7.20
68911;BMP180;55953;51.650;-0.522;2023-03-02T11:24:17;101684.40;;;7.30
68911;BMP180;55953;51.650;-0.522;2023-03-02T11:27:17;101686.80;;;7.40
68911;BMP180;55953;51.650;-0.522;2023-03-02T11:29:57;101684.80;;;7.58
68911;BMP180;55953;51.650;-0.522;2023-03-02T11:32:34;101678.20;;;7.60
68911;BMP180;55953;51.650;-0.522;2023-03-02T11:35:16;101679.40;;;7.60
68911;BMP180;55953;51.650;-0.522;2023-03-02T11:37:53;101683.60;;;7.70
68911;BMP180;55953;51.650;-0.522;2023-03-02T11:40:51;101682.00;;;7.70
68911;BMP180;55953;51.650;-0.522;2023-03-02T11:43:20;101689.20;;;7.80
68911;BMP180;55953;51.650;-0.522;2023-03-02T11:46:04;101689.40;;;7.70
68911;BMP180;55953;51.650;-0.522;2023-03-02T11:48:48;101693.80;;;7.66
68911;BMP180;55953;51.650;-0.522;2023-03-02T11:51:26;101685.80;;;7.64
68911;BMP180;55953;51.650;-0.522;2023-03-02T11:54:17;101696.00;;;7.70
68911;BMP180;55953;51.650;-0.522;2023-03-02T11:56:46;101688.80;;;7.70
68911;BMP180;55953;51.650;-0.522;2023-03-02T11:59:19;101685.40;;;7.74
68911;BMP180;55953;51.650;-0.522;2023-03-02T12:01:52;101687.00;;;7.82
68911;BMP180;55953;51.650;-0.522;2023-03-02T12:04:47;101681.80;;;8.00
68911;BMP180;55953;51.650;-0.522;2023-03-02T12:07:24;101683.60;;;8.10
68911;BMP180;55953;51.650;-0.522;2023-03-02T12:10:23;101678.20;;;8.20
68911;BMP180;55953;51.650;-0.522;2023-03-02T12:13:19;101680.20;;;8.40
68911;BMP180;55953;51.650;-0.522;2023-03-02T12:15:49;101680.40;;;8.48
68911;BMP180;55953;51.650;-0.522;2023-03-02T12:21:22;101681.80;;;8.70
68911;BMP180;55953;51.650;-0.522;2023-03-02T12:32:10;101667.20;;;9.00
68911;BMP180;55953;51.650;-0.522;2023-03-02T12:34:51;101663.80;;;9.04
68911;BMP180;55953;51.650;-0.522;2023-03-02T12:37:29;101662.20;;;9.10
68911;BMP180;55953;51.650;-0.522;2023-03-02T12:48:56;101673.20;;;9.20
68911;BMP180;55953;51.650;-0.522;2023-03-02T12:51:29;101671.00;;;9.28
68911;BMP180;55953;51.650;-0.522;2023-03-02T12:54:12;101674.40;;;9.20
68911;BMP180;55953;51.650;-0.522;2023-03-02T12:56:40;101670.80;;;9.20
68911;BMP180;55953;51.650;-0.522;2023-03-02T12:59:27;101664.00;;;9.20
68911;BMP180;55953;51.650;-0.522;2023-03-02T13:02:19;101668.40;;;9.20
68911;BMP180;55953;51.650;-0.522;2023-03-02T13:05:15;101663.20;;;9.10
68911;BMP180;55953;51.650;-0.522;2023-03-02T13:07:58;101668.20;;;9.00
68911;BMP180;55953;51.650;-0.522;2023-03-02T13:15:52;101656.20;;;9.00
68911;BMP180;55953;51.650;-0.522;2023-03-02T13:18:23;101661.00;;;9.00
68911;BMP180;55953;51.650;-0.522;2023-03-02T13:20:53;101657.60;;;9.00
68911;BMP180;55953;51.650;-0.522;2023-03-02T13:23:21;101659.60;;;9.10
68911;BMP180;55953;51.650;-0.522;2023-03-02T13:25:54;101653.20;;;9.10
68911;BMP180;55953;51.650;-0.522;2023-03-02T13:28:36;101654.40;;;9.10
68911;BMP180;55953;51.650;-0.522;2023-03-02T13:31:22;101651.00;;;9.10
68911;BMP180;55953;51.650;-0.522;2023-03-02T13:33:55;101652.80;;;9.08
68911;BMP180;55953;51.650;-0.522;2023-03-02T13:36:33;101650.40;;;9.00
68911;BMP180;55953;51.650;-0.522;2023-03-02T13:39:06;101649.60;;;8.94
68911;BMP180;55953;51.650;-0.522;2023-03-02T13:41:57;101647.40;;;8.76
68911;BMP180;55953;51.650;-0.522;2023-03-02T13:44:32;101640.20;;;8.80
68911;BMP180;55953;51.650;-0.522;2023-03-02T13:47:02;101639.00;;;9.00
68911;BMP180;55953;51.650;-0.522;2023-03-02T13:49:34;101632.20;;;8.90
68911;BMP180;55953;51.650;-0.522;2023-03-02T13:52:07;101634.20;;;9.10
68911;BMP180;55953;51.650;-0.522;2023-03-02T13:54:44;101634.20;;;9.16
68911;BMP180;55953;51.650;-0.522;2023-03-02T13:57:15;101634.80;;;9.20
68911;BMP180;55953;51.650;-0.522;2023-03-02T13:59:43;101636.40;;;9.20
68911;BMP180;55953;51.650;-0.522;2023-03-02T14:02:25;101633.00;;;9.30
68911;BMP180;55953;51.650;-0.522;2023-03-02T14:04:55;101638.00;;;9.20
68911;BMP180;55953;51.650;-0.522;2023-03-02T14:07:24;101630.40;;;9.14
68911;BMP180;55953;51.650;-0.522;2023-03-02T14:09:51;101633.40;;;9.20
68911;BMP180;55953;51.650;-0.522;2023-03-02T14:12:31;101637.00;;;9.30
68911;BMP180;55953;51.650;-0.522;2023-03-02T14:15:02;101624.80;;;9.30
68911;BMP180;55953;51.650;-0.522;2023-03-02T14:17:30;101629.00;;;9.40
68911;BMP180;55953;51.650;-0.522;2023-03-02T14:19:59;101630.60;;;9.46
68911;BMP180;55953;51.650;-0.522;2023-03-02T14:22:27;101623.80;;;9.48
68911;BMP180;55953;51.650;-0.522;2023-03-02T14:24:56;101620.00;;;9.60
68911;BMP180;55953;51.650;-0.522;2023-03-02T14:27:29;101618.20;;;9.60
68911;BMP180;55953;51.650;-0.522;2023-03-02T14:29:58;101622.20;;;9.70
68911;BMP180;55953;51.650;-0.522;2023-03-02T14:32:26;101622.20;;;9.70
68911;BMP180;55953;51.650;-0.522;2023-03-02T14:34:55;101621.20;;;9.70
68911;BMP180;55953;51.650;-0.522;2023-03-02T14:37:26;101618.80;;;9.70
68911;BMP180;55953;51.650;-0.522;2023-03-02T14:39:56;101617.60;;;9.70
68911;BMP180;55953;51.650;-0.522;2023-03-02T14:42:24;101611.60;;;9.80
68911;BMP180;55953;51.650;-0.522;2023-03-02T14:44:52;101607.00;;;9.60
68911;BMP180;55953;51.650;-0.522;2023-03-02T14:47:20;101615.20;;;9.50
68911;BMP180;55953;51.650;-0.522;2023-03-02T14:49:48;101613.20;;;9.50
68911;BMP180;55953;51.650;-0.522;2023-03-02T14:52:34;101611.80;;;9.50
68911;BMP180;55953;51.650;-0.522;2023-03-02T14:55:12;101614.40;;;9.50
68911;BMP180;55953;51.650;-0.522;2023-03-02T14:57:41;101602.00;;;9.40
68911;BMP180;55953;51.650;-0.522;2023-03-02T15:00:14;101600.00;;;9.30
68911;BMP180;55953;51.650;-0.522;2023-03-02T15:02:42;101593.40;;;9.30
68911;BMP180;55953;51.650;-0.522;2023-03-02T15:05:10;101596.80;;;9.42
68911;BMP180;55953;51.650;-0.522;2023-03-02T15:07:38;101597.20;;;9.60
68911;BMP180;55953;51.650;-0.522;2023-03-02T15:10:16;101592.60;;;9.60
68911;BMP180;55953;51.650;-0.522;2023-03-02T15:12:45;101593.20;;;9.50
68911;BMP180;55953;51.650;-0.522;2023-03-02T15:15:12;101589.80;;;9.46
68911;BMP180;55953;51.650;-0.522;2023-03-02T15:17:41;101591.40;;;9.50
68911;BMP180;55953;51.650;-0.522;2023-03-02T15:20:14;101592.00;;;9.48
68911;BMP180;55953;51.650;-0.522;2023-03-02T15:22:43;101585.20;;;9.50